Rocky Boy, Montana
Current Conditions -  °F | °C
As of 1:53 PM on Thursday 23 Oct 2014 (Local Time) from KHVR Reporting Station
Broken Clouds Broken Clouds  
Wind Chill: 62°   Ceiling: 11000
Heat Index: 62°   Visibility: 10mi
Dew Point: 39°   Wind: 16mph
Humidity: 43%   Direction: 230°SW
Pressure: 29.76"   Gusts: NA
Location:  48.3217°N, 109.835°W
Report Text: KHVR 231953Z AUTO 23014KT 10SM BKN110 17/04 A2976 RMK AO2 RAB10E19 SLP073 P0000 T01670039
Loading
Personal Weather Stations






























Interactive Weather Map
Tropical Storm Tracking
New forecast layout! Learn more

10-Day Weather Forecast

Advertisements
Track Severe Weather on mobile